Time;durP1;ratioP1;P1;durP2;ratioP2;P2;SDS_P1;SDS_P2;PMS_P1;PMS_P2;Temp;Humidity;BMP_temperature;BMP_pressure;BME280_temperature;BME280_humidity;BME280_pressure;Samples;Min_cycle;Max_cycle;Signal;HPM_P1;HPM_P2
2023/03/07 00:00:18;;;;;;;17.25;10.88;;;;;;;2.85;100.00;99189.28;697219;28;1352;-60
2023/03/07 00:00:39;;;;;;;18.13;11.57;;;;;;;2.87;100.00;99177.28;697688;28;1400;-60
2023/03/07 00:00:59;;;;;;;17.95;11.52;;;;;;;2.86;100.00;99191.03;695314;28;1337;-60
2023/03/07 00:01:27;;;;;;;16.37;11.10;;;;;;;2.81;100.00;99192.72;694552;28;1396;-61
2023/03/07 00:01:49;;;;;;;18.63;11.65;;;;;;;2.84;100.00;99190.19;694138;28;1568;-60
2023/03/07 00:02:12;;;;;;;17.27;11.45;;;;;;;2.89;100.00;99184.16;695662;28;1420;-60
2023/03/07 00:02:33;;;;;;;16.47;10.23;;;;;;;2.83;100.00;99191.03;694800;28;4284;-61
2023/03/07 00:02:53;;;;;;;14.88;9.38;;;;;;;2.83;100.00;99185.88;697546;28;1598;-61
2023/03/07 00:03:15;;;;;;;16.67;10.50;;;;;;;2.75;100.00;99187.56;696180;28;1340;-61
2023/03/07 00:03:38;;;;;;;18.75;11.30;;;;;;;2.83;100.00;99191.88;694991;28;1302;-61
2023/03/07 00:03:59;;;;;;;19.33;11.38;;;;;;;2.85;100.00;99189.28;691598;28;1452;-60
2023/03/07 00:04:20;;;;;;;16.83;11.23;;;;;;;2.81;100.00;99187.56;686615;28;2239;-61
2023/03/07 00:04:45;;;;;;;15.55;11.30;;;;;;;2.81;100.00;99190.16;686076;28;2120;-60
2023/03/07 00:05:08;;;;;;;15.88;10.85;;;;;;;2.83;100.00;99186.72;690369;28;1395;-60
2023/03/07 00:05:29;;;;;;;15.77;10.88;;;;;;;2.82;100.00;99184.13;691136;28;1528;-60
2023/03/07 00:06:03;;;;;;;16.80;10.77;;;;;;;2.77;100.00;99178.97;691525;28;4313;-61
2023/03/07 00:06:24;;;;;;;15.70;10.40;;;;;;;2.75;100.00;99187.56;697318;28;1313;-60
2023/03/07 00:06:44;;;;;;;17.48;11.07;;;;;;;2.83;100.00;99188.44;696211;28;1145;-60
2023/03/07 00:07:05;;;;;;;17.27;11.33;;;;;;;2.90;100.00;99187.59;697102;28;1222;-60
2023/03/07 00:07:25;;;;;;;16.55;10.70;;;;;;;2.87;100.00;99188.44;696621;28;1153;-60
2023/03/07 00:07:49;;;;;;;16.10;10.40;;;;;;;2.92;100.00;99195.34;696519;28;3486;-60
2023/03/07 00:08:10;;;;;;;16.40;10.95;;;;;;;2.85;100.00;99195.34;696279;28;1317;-60
2023/03/07 00:08:31;;;;;;;16.30;10.30;;;;;;;2.84;100.00;99182.44;695472;28;1270;-60
2023/03/07 00:08:53;;;;;;;15.43;10.60;;;;;;;2.93;100.00;99181.59;697768;28;4231;-59
2023/03/07 00:09:14;;;;;;;17.05;10.50;;;;;;;2.87;100.00;99179.84;697465;28;1177;-60
2023/03/07 00:09:35;;;;;;;17.23;10.77;;;;;;;2.85;100.00;99187.59;696776;28;1186;-60
2023/03/07 00:09:55;;;;;;;16.10;10.98;;;;;;;2.89;100.00;99185.88;696810;28;1056;-61
2023/03/07 00:10:16;;;;;;;16.65;11.07;;;;;;;2.84;100.00;99188.44;699903;28;1234;-60
2023/03/07 00:10:37;;;;;;;15.83;11.07;;;;;;;2.93;100.00;99182.44;699437;28;1381;-60
2023/03/07 00:11:02;;;;;;;15.68;10.90;;;;;;;2.94;100.00;99194.50;698489;28;1193;-59
2023/03/07 00:11:23;;;;;;;14.65;10.52;;;;;;;2.92;100.00;99183.28;697061;28;1397;-60
2023/03/07 00:11:43;;;;;;;15.43;10.37;;;;;;;2.90;100.00;99187.59;697247;28;4341;-60
2023/03/07 00:12:04;;;;;;;15.90;10.73;;;;;;;2.85;100.00;99186.72;698999;28;1348;-60
2023/03/07 00:12:24;;;;;;;15.10;10.70;;;;;;;2.77;100.00;99189.28;693722;28;1377;-60
2023/03/07 00:12:45;;;;;;;15.37;10.37;;;;;;;2.73;100.00;99188.41;697471;28;1357;-60
2023/03/07 00:13:05;;;;;;;15.70;9.95;;;;;;;2.89;100.00;99181.59;694069;28;1214;-60
2023/03/07 00:13:29;;;;;;;17.03;10.40;;;;;;;2.80;100.00;99180.69;693069;28;1642;-60
2023/03/07 00:13:50;;;;;;;16.80;11.02;;;;;;;2.79;100.00;99189.28;692647;28;1491;-60
2023/03/07 00:14:11;;;;;;;16.25;10.95;;;;;;;2.76;100.00;99186.72;692458;28;1251;-60
2023/03/07 00:14:34;;;;;;;14.87;10.20;;;;;;;2.83;100.00;99185.88;690636;28;1354;-60
2023/03/07 00:14:55;;;;;;;16.27;10.20;;;;;;;2.83;100.00;99183.28;692409;28;4893;-60
2023/03/07 00:15:16;;;;;;;15.03;10.13;;;;;;;2.92;100.00;99183.28;691819;28;1325;-60
2023/03/07 00:15:38;;;;;;;15.50;10.48;;;;;;;2.86;100.00;99191.88;688237;28;1397;-61
2023/03/07 00:16:00;;;;;;;15.73;10.93;;;;;;;2.81;100.00;99182.41;686987;28;1211;-61
2023/03/07 00:16:26;;;;;;;15.82;10.00;;;;;;;2.89;100.00;99178.13;689352;28;1338;-60
2023/03/07 00:16:50;;;;;;;14.30;9.85;;;;;;;2.88;100.00;99181.56;690235;28;1123;-61
2023/03/07 00:17:10;;;;;;;14.60;9.73;;;;;;;2.89;100.00;99180.69;694998;28;1358;-60
2023/03/07 00:17:30;;;;;;;15.83;10.03;;;;;;;2.89;100.00;99176.41;690418;28;1473;-60
2023/03/07 00:17:51;;;;;;;14.87;10.23;;;;;;;2.92;100.00;99180.69;691740;28;4270;-60
2023/03/07 00:18:11;;;;;;;15.45;10.00;;;;;;;2.95;100.00;99173.00;694111;28;1302;-60
2023/03/07 00:18:31;;;;;;;14.53;10.07;;;;;;;2.93;100.00;99177.28;692411;28;1078;-61
2023/03/07 00:18:53;;;;;;;14.57;10.45;;;;;;;2.88;100.00;99176.38;691671;28;888;-61
2023/03/07 00:19:14;;;;;;;15.13;10.77;;;;;;;2.82;100.00;99184.13;698430;28;1171;-60
2023/03/07 00:19:36;;;;;;;15.17;10.13;;;;;;;2.79;100.00;99184.97;700682;28;1384;-61
2023/03/07 00:19:57;;;;;;;14.93;9.77;;;;;;;2.76;100.00;99181.56;699878;28;1221;-59
2023/03/07 00:20:17;;;;;;;15.70;10.23;;;;;;;2.87;100.00;99175.53;700242;28;1407;-59
2023/03/07 00:20:37;;;;;;;15.43;9.93;;;;;;;2.87;100.00;99185.03;699302;28;4261;-60
2023/03/07 00:21:00;;;;;;;14.57;9.93;;;;;;;2.80;100.00;99178.13;700301;28;1233;-61
2023/03/07 00:21:26;;;;;;;14.85;9.68;;;;;;;2.86;100.00;99178.13;700174;28;1353;-60
2023/03/07 00:21:46;;;;;;;14.68;10.05;;;;;;;2.82;100.00;99184.97;695086;28;1405;-61
2023/03/07 00:22:10;;;;;;;16.07;10.53;;;;;;;2.79;100.00;99179.81;695900;28;1481;-61
2023/03/07 00:22:30;;;;;;;14.18;9.38;;;;;;;2.72;100.00;99180.66;693564;28;1527;-59
2023/03/07 00:22:51;;;;;;;13.93;9.63;;;;;;;2.72;100.00;99178.94;691628;28;1507;-60
2023/03/07 00:23:11;;;;;;;14.10;9.70;;;;;;;2.82;100.00;99177.25;693913;28;1317;-60
2023/03/07 00:23:33;;;;;;;14.70;9.50;;;;;;;2.77;100.00;99172.94;693203;28;1385;-61
2023/03/07 00:23:53;;;;;;;14.23;9.10;;;;;;;2.83;100.00;99186.72;694856;28;4852;-60
2023/03/07 00:24:14;;;;;;;14.55;9.68;;;;;;;2.76;100.00;99181.56;691354;28;1167;-60
2023/03/07 00:24:35;;;;;;;15.20;9.90;;;;;;;2.82;100.00;99178.97;697453;28;1344;-60
2023/03/07 00:24:55;;;;;;;16.10;10.47;;;;;;;2.82;100.00;99178.97;699115;28;1249;-61
2023/03/07 00:25:16;;;;;;;16.23;10.60;;;;;;;2.84;100.00;99185.03;698825;28;1342;-60
2023/03/07 00:25:37;;;;;;;15.27;9.95;;;;;;;2.89;100.00;99175.53;698740;28;1381;-61
2023/03/07 00:25:58;;;;;;;15.07;10.20;;;;;;;2.86;100.00;99171.22;696021;28;1915;-60
2023/03/07 00:26:23;;;;;;;13.75;9.52;;;;;;;2.86;100.00;99183.28;697997;28;1372;-60
2023/03/07 00:26:44;;;;;;;13.95;8.98;;;;;;;2.82;100.00;99178.97;698676;28;4486;-60
2023/03/07 00:27:05;;;;;;;15.17;9.73;;;;;;;2.77;100.00;99171.22;701832;28;1379;-60
2023/03/07 00:27:25;;;;;;;15.10;10.18;;;;;;;2.73;100.00;99178.09;702032;28;1337;-60
2023/03/07 00:27:46;;;;;;;14.67;9.77;;;;;;;2.85;100.00;99179.84;701091;28;1364;-60
2023/03/07 00:28:06;;;;;;;14.45;9.55;;;;;;;2.81;100.00;99179.81;701663;28;1500;-60
2023/03/07 00:28:27;;;;;;;14.70;9.50;;;;;;;2.86;100.00;99183.28;696179;28;1331;-61
2023/03/07 00:28:50;;;;;;;15.30;9.90;;;;;;;3.00;100.00;99176.41;695216;28;1432;-60
2023/03/07 00:29:10;;;;;;;14.95;9.43;;;;;;;2.98;100.00;99185.91;690961;28;1471;-60
2023/03/07 00:29:34;;;;;;;14.65;10.10;;;;;;;2.89;100.00;99180.69;689275;28;1387;-61
2023/03/07 00:29:57;;;;;;;15.40;10.00;;;;;;;2.90;100.00;99172.97;687499;28;4896;-61
2023/03/07 00:30:17;;;;;;;13.88;9.77;;;;;;;2.86;100.00;99176.38;687534;28;1331;-61
2023/03/07 00:30:40;;;;;;;13.55;9.70;;;;;;;2.88;100.00;99163.47;688429;28;1402;-60
2023/03/07 00:31:03;;;;;;;15.05;10.15;;;;;;;2.83;100.00;99180.69;692368;28;1385;-59
2023/03/07 00:31:23;;;;;;;14.45;9.77;;;;;;;2.87;100.00;99172.13;696552;28;1135;-61
2023/03/07 00:31:44;;;;;;;14.37;9.83;;;;;;;2.87;100.00;99174.69;694346;28;1657;-61
2023/03/07 00:32:04;;;;;;;14.23;10.10;;;;;;;2.87;100.00;99183.28;693293;28;1333;-60
2023/03/07 00:32:25;;;;;;;14.80;9.40;;;;;;;2.92;100.00;99169.53;694248;28;1318;-62
2023/03/07 00:32:46;;;;;;;14.32;9.24;;;;;;;2.90;100.00;99178.13;697219;28;4293;-61
2023/03/07 00:33:06;;;;;;;13.93;9.57;;;;;;;2.88;100.00;99171.22;695639;28;1337;-61
2023/03/07 00:33:27;;;;;;;14.07;9.40;;;;;;;2.90;100.00;99174.69;695480;28;1424;-60
2023/03/07 00:33:50;;;;;;;14.10;9.75;;;;;;;2.93;100.00;99166.94;695865;28;1468;-61
2023/03/07 00:34:14;;;;;;;15.40;9.45;;;;;;;2.89;100.00;99172.97;696024;28;1472;-60
2023/03/07 00:34:34;;;;;;;15.13;9.57;;;;;;;2.96;100.00;99166.94;694333;28;1281;-61
2023/03/07 00:35:02;;;;;;;13.60;9.40;;;;;;;2.86;100.00;99175.53;694286;28;1274;-61
2023/03/07 00:35:22;;;;;;;14.95;9.73;;;;;;;2.81;100.00;99172.97;690379;28;1330;-61
2023/03/07 00:35:42;;;;;;;15.05;10.23;;;;;;;2.87;100.00;99172.13;689518;28;4546;-61
2023/03/07 00:36:10;;;;;;;13.97;10.03;;;;;;;2.87;100.00;99165.22;689679;28;1425;-61
2023/03/07 00:36:30;;;;;;;15.00;10.02;;;;;;;2.86;100.00;99167.81;690769;28;1313;-61
2023/03/07 00:36:51;;;;;;;14.52;10.20;;;;;;;2.81;100.00;99167.81;693823;28;1445;-61
2023/03/07 00:37:14;;;;;;;13.95;10.05;;;;;;;2.90;100.00;99162.63;695735;28;1313;-61
2023/03/07 00:37:34;;;;;;;13.45;9.52;;;;;;;2.86;100.00;99172.97;693213;28;2176;-60
2023/03/07 00:37:54;;;;;;;15.43;10.20;;;;;;;2.81;100.00;99169.50;690088;28;1174;-61
2023/03/07 00:38:15;;;;;;;14.15;8.95;;;;;;;2.87;100.00;99161.78;688176;28;1357;-60
2023/03/07 00:38:35;;;;;;;14.03;8.70;;;;;;;2.87;100.00;99172.13;689073;28;4315;-60
2023/03/07 00:38:56;;;;;;;13.95;9.55;;;;;;;2.88;100.00;99159.19;692606;28;1247;-61
2023/03/07 00:39:17;;;;;;;13.65;9.52;;;;;;;2.84;100.00;99172.13;690261;28;1307;-61
2023/03/07 00:39:38;;;;;;;14.63;9.70;;;;;;;2.86;100.00;99163.47;694488;28;1174;-61
2023/03/07 00:39:58;;;;;;;13.93;9.73;;;;;;;2.83;100.00;99163.47;698449;28;1389;-61
2023/03/07 00:40:19;;;;;;;13.70;9.57;;;;;;;2.86;100.00;99165.22;698358;28;1602;-60
2023/03/07 00:40:39;;;;;;;14.33;9.83;;;;;;;2.87;100.00;99161.78;697320;28;1377;-62
2023/03/07 00:41:01;;;;;;;14.85;10.10;;;;;;;2.89;100.00;99165.22;694585;28;1333;-60
2023/03/07 00:41:24;;;;;;;14.52;9.55;;;;;;;2.96;100.00;99160.94;696144;28;1134;-60
2023/03/07 00:41:44;;;;;;;14.15;9.23;;;;;;;2.96;100.00;99169.53;695592;28;4245;-60
2023/03/07 00:42:07;;;;;;;13.63;9.50;;;;;;;2.91;100.00;99168.69;693403;28;1333;-60
2023/03/07 00:42:28;;;;;;;14.02;9.15;;;;;;;3.00;100.00;99154.91;691878;28;1412;-59
2023/03/07 00:42:48;;;;;;;12.70;8.83;;;;;;;3.04;100.00;99157.50;692088;28;1386;-61
2023/03/07 00:43:08;;;;;;;12.37;8.63;;;;;;;2.98;100.00;99160.09;690367;28;1278;-61
2023/03/07 00:43:30;;;;;;;13.07;9.30;;;;;;;2.95;100.00;99165.25;691193;28;1418;-59
2023/03/07 00:43:52;;;;;;;13.15;9.13;;;;;;;2.96;100.00;99166.09;691855;28;1470;-60
2023/03/07 00:44:12;;;;;;;13.77;9.95;;;;;;;2.93;100.00;99161.78;695806;28;1480;-60
2023/03/07 00:44:33;;;;;;;13.90;9.90;;;;;;;2.92;100.00;99159.19;690786;28;1367;-60
2023/03/07 00:44:56;;;;;;;14.13;9.43;;;;;;;2.92;100.00;99162.63;689026;28;4256;-60
2023/03/07 00:45:16;;;;;;;13.93;9.50;;;;;;;2.96;100.00;99158.34;691879;28;1396;-60
2023/03/07 00:45:37;;;;;;;13.43;9.27;;;;;;;2.90;100.00;99157.47;691683;28;1278;-60
2023/03/07 00:45:57;;;;;;;14.00;9.30;;;;;;;2.89;100.00;99160.94;690612;28;2030;-60
2023/03/07 00:46:20;;;;;;;13.13;8.95;;;;;;;2.88;100.00;99163.47;691598;28;1325;-60
2023/03/07 00:46:40;;;;;;;13.30;9.50;;;;;;;2.92;100.00;99154.88;696168;28;1187;-60
2023/03/07 00:47:02;;;;;;;12.27;8.82;;;;;;;2.87;100.00;99167.81;690625;28;1465;-59
2023/03/07 00:47:22;;;;;;;13.25;9.57;;;;;;;2.81;100.00;99162.63;694863;28;1235;-60
2023/03/07 00:47:43;;;;;;;13.57;9.30;;;;;;;2.77;100.00;99166.06;692590;28;4314;-60
2023/03/07 00:48:03;;;;;;;13.13;9.10;;;;;;;2.76;100.00;99166.06;692394;28;1366;-60
2023/03/07 00:48:25;;;;;;;13.07;9.02;;;;;;;2.80;100.00;99166.06;689033;28;1204;-60
2023/03/07 00:48:46;;;;;;;13.10;8.90;;;;;;;2.81;100.00;99164.34;684742;28;1387;-60
2023/03/07 00:49:10;;;;;;;13.82;9.68;;;;;;;2.78;100.00;99164.34;687452;28;1376;-60
2023/03/07 00:49:30;;;;;;;13.63;9.43;;;;;;;2.86;100.00;99165.22;690342;28;1366;-60
2023/03/07 00:49:51;;;;;;;14.90;9.68;;;;;;;2.89;100.00;99160.06;687342;28;1501;-60
2023/03/07 00:50:12;;;;;;;13.57;9.60;;;;;;;2.83;100.00;99157.47;693517;28;1551;-60
2023/03/07 00:50:32;;;;;;;12.95;9.43;;;;;;;2.81;100.00;99156.59;692718;28;1349;-60
2023/03/07 00:50:54;;;;;;;12.27;8.83;;;;;;;2.84;100.00;99152.31;692943;28;4432;-61
2023/03/07 00:51:17;;;;;;;12.60;9.20;;;;;;;2.88;100.00;99153.16;694860;28;1417;-62
2023/03/07 00:51:37;;;;;;;12.45;8.77;;;;;;;2.93;100.00;99155.78;693736;28;1263;-59
2023/03/07 00:51:58;;;;;;;12.37;8.67;;;;;;;2.93;100.00;99156.63;690258;28;1302;-61
2023/03/07 00:52:19;;;;;;;12.80;9.20;;;;;;;2.93;100.00;99141.13;692509;28;1530;-60
2023/03/07 00:52:39;;;;;;;12.35;8.90;;;;;;;2.92;100.00;99147.16;689795;28;5837;-60
2023/03/07 00:53:00;;;;;;;12.77;9.13;;;;;;;2.94;100.00;99149.75;688989;28;1415;-61
2023/03/07 00:53:21;;;;;;;12.63;9.07;;;;;;;2.94;100.00;99152.34;690222;28;1262;-61
2023/03/07 00:53:42;;;;;;;13.45;9.35;;;;;;;2.99;100.00;99141.16;686021;28;4316;-61
2023/03/07 00:54:03;;;;;;;13.52;9.63;;;;;;;2.99;100.00;99142.84;687255;28;1382;-62
2023/03/07 00:54:24;;;;;;;12.75;9.35;;;;;;;2.96;100.00;99150.59;686921;28;1292;-61
2023/03/07 00:54:45;;;;;;;12.82;9.02;;;;;;;2.90;100.00;99151.47;690770;28;1365;-60
2023/03/07 00:55:06;;;;;;;13.10;9.20;;;;;;;2.93;100.00;99151.47;693932;28;1206;-60
2023/03/07 00:55:26;;;;;;;13.27;9.13;;;;;;;2.95;100.00;99149.75;689063;28;1390;-61
2023/03/07 00:56:20;;;;;;;12.63;8.53;;;;;;;2.94;100.00;99147.19;690003;28;1392;-62
2023/03/07 00:56:41;;;;;;;12.38;8.93;;;;;;;2.89;100.00;99149.72;685519;28;5422;-61
2023/03/07 00:57:05;;;;;;;12.27;8.80;;;;;;;2.90;100.00;99146.31;692108;28;1311;-61
2023/03/07 00:57:28;;;;;;;12.60;9.07;;;;;;;3.02;100.00;99142.88;693667;28;1268;-61
2023/03/07 00:57:49;;;;;;;13.57;9.13;;;;;;;3.11;100.00;99139.44;692549;28;1416;-61
2023/03/07 00:58:09;;;;;;;13.35;8.68;;;;;;;3.04;100.00;99152.34;695111;28;1368;-61
2023/03/07 00:58:36;;;;;;;12.50;8.60;;;;;;;2.96;100.00;99145.44;694796;28;1123;-61
2023/03/07 00:58:56;;;;;;;13.85;9.90;;;;;;;2.89;100.00;99144.56;690571;28;1854;-60
2023/03/07 00:59:16;;;;;;;12.55;8.82;;;;;;;2.98;100.00;99138.59;688344;28;1334;-60
2023/03/07 00:59:37;;;;;;;13.10;8.80;;;;;;;2.92;100.00;99144.56;687877;28;4307;-61
2023/03/07 00:59:57;;;;;;;13.25;9.18;;;;;;;2.95;100.00;99144.59;692216;28;1172;-61
2023/03/07 01:00:18;;;;;;;12.90;9.40;;;;;;;2.93;100.00;99150.59;694993;28;1818;-60
2023/03/07 01:00:38;;;;;;;13.20;8.55;;;;;;;2.97;100.00;99144.59;693613;28;1235;-60
2023/03/07 01:01:05;;;;;;;13.57;8.65;;;;;;;2.91;100.00;99153.19;693449;28;1267;-61
2023/03/07 01:01:26;;;;;;;13.30;8.82;;;;;;;2.93;100.00;99145.44;692756;28;1316;-62
2023/03/07 01:01:46;;;;;;;13.27;9.55;;;;;;;2.96;100.00;99146.28;690558;28;1398;-60
2023/03/07 01:02:07;;;;;;;13.37;9.17;;;;;;;3.00;100.00;99150.59;692619;28;1299;-61
2023/03/07 01:02:30;;;;;;;13.20;8.98;;;;;;;2.94;100.00;99131.69;694644;28;1235;-60
2023/03/07 01:02:50;;;;;;;12.23;9.00;;;;;;;3.01;100.00;99138.56;691968;28;4337;-60
2023/03/07 01:03:11;;;;;;;12.60;9.15;;;;;;;3.04;100.00;99133.41;693803;28;1346;-60
2023/03/07 01:03:33;;;;;;;13.00;9.17;;;;;;;3.02;100.00;99136.00;692722;28;1236;-60
2023/03/07 01:03:54;;;;;;;13.48;9.57;;;;;;;2.98;100.00;99141.16;692465;28;3433;-60
2023/03/07 01:04:15;;;;;;;12.40;9.18;;;;;;;2.97;100.00;99135.13;691569;28;1497;-61
2023/03/07 01:04:36;;;;;;;11.60;8.70;;;;;;;2.96;100.00;99146.28;693231;28;1409;-61
2023/03/07 01:04:59;;;;;;;12.93;9.17;;;;;;;2.92;100.00;99131.66;696983;28;1164;-60
2023/03/07 01:05:19;;;;;;;12.77;8.90;;;;;;;2.89;100.00;99142.88;694906;28;1306;-61
2023/03/07 01:05:40;;;;;;;12.65;8.90;;;;;;;2.96;100.00;99135.97;682584;28;4327;-60
2023/03/07 01:06:06;;;;;;;12.73;8.77;;;;;;;2.98;100.00;99142.00;691064;28;2402;-60
2023/03/07 01:06:29;;;;;;;12.05;8.65;;;;;;;2.97;100.00;99142.88;693342;28;1326;-61
2023/03/07 01:06:50;;;;;;;12.25;8.43;;;;;;;3.01;100.00;99144.59;692624;28;1286;-61
2023/03/07 01:07:10;;;;;;;11.73;7.95;;;;;;;3.00;100.00;99139.44;691278;28;1385;-60
2023/03/07 01:07:31;;;;;;;12.55;8.90;;;;;;;2.97;100.00;99134.28;690728;28;1231;-61
2023/03/07 01:07:52;;;;;;;13.13;9.43;;;;;;;3.01;100.00;99134.25;689763;28;1373;-61
2023/03/07 01:08:13;;;;;;;12.65;9.23;;;;;;;3.04;100.00;99134.25;684756;28;1458;-60
2023/03/07 01:08:34;;;;;;;12.77;9.00;;;;;;;3.02;100.00;99133.41;684418;28;4637;-59
2023/03/07 01:08:57;;;;;;;13.27;8.95;;;;;;;2.98;100.00;99136.00;685990;28;1239;-60
2023/03/07 01:09:18;;;;;;;12.35;9.20;;;;;;;2.99;100.00;99136.00;686713;28;1374;-60
2023/03/07 01:09:39;;;;;;;12.35;8.95;;;;;;;3.06;100.00;99132.56;692139;28;1396;-61
2023/03/07 01:09:59;;;;;;;12.38;8.20;;;;;;;3.01;100.00;99147.19;694554;28;1361;-61
2023/03/07 01:10:20;;;;;;;12.50;8.60;;;;;;;2.93;100.00;99143.72;694420;28;1341;-63
2023/03/07 01:10:44;;;;;;;13.27;8.80;;;;;;;2.93;100.00;99141.13;693279;28;1342;-61
2023/03/07 01:11:05;;;;;;;12.90;9.10;;;;;;;2.88;100.00;99137.69;691008;28;1307;-60
2023/03/07 01:11:30;;;;;;;12.63;9.05;;;;;;;2.92;100.00;99148.88;687895;28;1315;-61
2023/03/07 01:11:52;;;;;;;12.73;8.90;;;;;;;2.98;100.00;99136.00;683859;28;4654;-60
2023/03/07 01:12:12;;;;;;;12.02;8.70;;;;;;;2.96;100.00;99141.13;687479;28;1493;-61
2023/03/07 01:12:32;;;;;;;11.90;8.57;;;;;;;2.95;100.00;99146.28;685275;28;1454;-61
2023/03/07 01:12:56;;;;;;;11.60;8.60;;;;;;;3.01;100.00;99142.00;688983;28;1533;-60
2023/03/07 01:13:18;;;;;;;12.02;8.32;;;;;;;2.94;100.00;99142.00;694244;28;2112;-60
2023/03/07 01:13:38;;;;;;;11.88;8.30;;;;;;;2.88;100.00;99140.25;693094;28;1416;-61
2023/03/07 01:14:02;;;;;;;12.63;8.52;;;;;;;2.86;100.00;99139.41;692189;28;1765;-61
2023/03/07 01:14:23;;;;;;;13.23;8.73;;;;;;;2.86;100.00;99135.09;692792;28;1361;-61
2023/03/07 01:14:43;;;;;;;12.30;8.17;;;;;;;2.89;100.00;99136.81;691800;28;4388;-61
2023/03/07 01:15:05;;;;;;;12.47;8.37;;;;;;;2.94;100.00;99132.53;686890;28;1382;-61
2023/03/07 01:15:26;;;;;;;11.77;8.63;;;;;;;2.97;100.00;99136.84;690049;28;1341;-61
2023/03/07 01:15:48;;;;;;;12.07;8.52;;;;;;;3.08;100.00;99137.72;687740;28;1327;-60
2023/03/07 01:16:17;;;;;;;11.98;8.57;;;;;;;3.01;100.00;99142.00;688320;28;1513;-59
2023/03/07 01:16:38;;;;;;;12.75;8.82;;;;;;;2.94;100.00;99131.69;691405;28;1408;-60
2023/03/07 01:16:58;;;;;;;12.40;8.80;;;;;;;2.97;100.00;99137.69;691944;28;1460;-59
2023/03/07 01:17:22;;;;;;;11.75;8.63;;;;;;;3.02;100.00;99125.66;693267;28;1420;-60
2023/03/07 01:17:42;;;;;;;11.65;8.82;;;;;;;3.08;100.00;99139.44;691296;28;4348;-59
2023/03/07 01:18:10;;;;;;;11.15;8.30;;;;;;;3.00;100.00;99132.53;685204;28;1409;-60
2023/03/07 01:18:30;;;;;;;11.93;8.48;;;;;;;3.01;100.00;99130.84;686237;28;1664;-60
2023/03/07 01:18:57;;;;;;;12.48;8.63;;;;;;;2.99;100.00;99133.41;686840;28;1299;-60
2023/03/07 01:19:19;;;;;;;12.55;8.60;;;;;;;2.97;100.00;99144.59;691173;28;1171;-60
2023/03/07 01:19:42;;;;;;;11.70;8.50;;;;;;;2.90;100.00;99139.41;688248;28;1445;-60
2023/03/07 01:20:05;;;;;;;11.65;8.60;;;;;;;2.87;100.00;99138.56;689153;28;1306;-60
2023/03/07 01:20:31;;;;;;;12.27;8.57;;;;;;;2.89;100.00;99140.28;687293;28;1373;-60
2023/03/07 01:20:51;;;;;;;11.90;8.45;;;;;;;2.86;100.00;99131.66;684505;28;4321;-60
2023/03/07 01:21:22;;;;;;;11.57;7.73;;;;;;;3.02;100.00;99135.16;686273;28;1488;-60
2023/03/07 01:21:43;;;;;;;11.57;8.10;;;;;;;3.03;100.00;99127.41;685420;28;1802;-60
2023/03/07 01:22:04;;;;;;;12.05;8.45;;;;;;;3.05;100.00;99137.72;686585;28;1331;-59
2023/03/07 01:22:24;;;;;;;12.40;8.07;;;;;;;2.98;100.00;99134.28;691713;28;1369;-61
2023/03/07 01:22:45;;;;;;;12.07;8.40;;;;;;;3.05;100.00;99132.56;686065;28;1237;-60
2023/03/07 01:23:06;;;;;;;11.20;7.72;;;;;;;2.99;100.00;99129.94;689035;28;1355;-60
2023/03/07 01:23:29;;;;;;;11.30;7.97;;;;;;;2.97;100.00;99129.97;689462;28;1337;-59
2023/03/07 01:23:50;;;;;;;11.57;7.97;;;;;;;3.01;100.00;99133.41;685115;28;4772;-60
2023/03/07 01:24:13;;;;;;;12.93;8.52;;;;;;;2.98;100.00;99129.09;685971;28;1319;-60
2023/03/07 01:24:33;;;;;;;11.43;8.27;;;;;;;3.00;100.00;99132.53;685597;28;1399;-60
2023/03/07 01:24:54;;;;;;;11.13;8.00;;;;;;;2.99;100.00;99136.00;687609;28;1596;-60
2023/03/07 01:25:14;;;;;;;11.50;8.48;;;;;;;2.95;100.00;99134.28;688098;28;1362;-60
2023/03/07 01:25:39;;;;;;;11.27;7.93;;;;;;;2.97;100.00;99136.84;687292;28;1331;-60
2023/03/07 01:26:01;;;;;;;11.50;8.00;;;;;;;2.95;100.00;99129.09;689862;28;1954;-60
2023/03/07 01:26:24;;;;;;;11.63;7.43;;;;;;;3.03;100.00;99127.41;693221;28;1374;-60
2023/03/07 01:26:45;;;;;;;10.60;7.50;;;;;;;2.98;100.00;99134.28;682485;28;4326;-60
2023/03/07 01:27:05;;;;;;;10.73;7.73;;;;;;;3.03;100.00;99124.81;693887;28;1671;-60
2023/03/07 01:27:26;;;;;;;10.73;7.75;;;;;;;3.00;100.00;99132.53;690508;28;1438;-60
2023/03/07 01:27:47;;;;;;;12.00;8.55;;;;;;;2.94;100.00;99132.53;689890;28;1323;-61
2023/03/07 01:28:12;;;;;;;11.23;8.47;;;;;;;2.98;100.00;99123.09;692972;28;1424;-60
2023/03/07 01:28:33;;;;;;;11.57;8.50;;;;;;;2.93;100.00;99138.56;694232;28;1559;-60
2023/03/07 01:28:59;;;;;;;11.07;8.20;;;;;;;2.88;100.00;99135.09;693393;28;1339;-60
2023/03/07 01:29:23;;;;;;;11.85;8.45;;;;;;;2.91;100.00;99135.13;690533;28;1515;-60
2023/03/07 01:29:46;;;;;;;11.90;8.10;;;;;;;3.01;100.00;99123.09;686286;28;4407;-60
2023/03/07 01:30:09;;;;;;;12.25;8.40;;;;;;;2.90;100.00;99125.66;686155;28;1398;-62
2023/03/07 01:30:32;;;;;;;11.30;8.05;;;;;;;2.86;100.00;99137.69;689995;28;1501;-63
2023/03/07 01:31:00;;;;;;;12.90;8.32;;;;;;;2.85;100.00;99132.50;690606;28;1480;-61
2023/03/07 01:31:24;;;;;;;11.35;7.78;;;;;;;2.87;100.00;99135.97;685564;28;1811;-60
2023/03/07 01:31:44;;;;;;;11.43;8.02;;;;;;;2.84;100.00;99136.81;687426;28;1351;-61
2023/03/07 01:32:05;;;;;;;10.87;7.93;;;;;;;2.96;100.00;99120.47;684958;28;1407;-60
2023/03/07 01:32:28;;;;;;;11.93;8.38;;;;;;;2.99;100.00;99120.50;683290;28;1320;-59
2023/03/07 01:32:56;;;;;;;10.55;7.07;;;;;;;2.92;100.00;99126.50;682915;28;4450;-60
2023/03/07 01:33:17;;;;;;;11.30;7.88;;;;;;;2.95;100.00;99125.66;683253;28;1471;-60
2023/03/07 01:33:40;;;;;;;11.00;7.60;;;;;;;2.95;100.00;99129.09;684217;28;1391;-60
2023/03/07 01:34:02;;;;;;;11.75;7.93;;;;;;;2.87;100.00;99128.22;686965;28;1382;-60
2023/03/07 01:34:25;;;;;;;11.35;7.60;;;;;;;2.90;100.00;99128.22;686678;28;1383;-60
2023/03/07 01:34:46;;;;;;;10.80;7.70;;;;;;;2.90;100.00;99118.75;692495;28;1540;-60
2023/03/07 01:35:07;;;;;;;10.63;7.80;;;;;;;2.87;100.00;99120.50;690380;28;1330;-61
2023/03/07 01:35:28;;;;;;;10.35;7.40;;;;;;;2.82;100.00;99128.19;692504;28;1420;-60
2023/03/07 01:35:50;;;;;;;10.55;7.43;;;;;;;2.86;100.00;99134.25;688960;28;4597;-60
2023/03/07 01:36:17;;;;;;;10.88;7.72;;;;;;;2.82;100.00;99132.50;687769;28;1485;-61
2023/03/07 01:36:38;;;;;;;11.35;7.72;;;;;;;2.86;100.00;99131.66;686260;28;1371;-60
2023/03/07 01:37:00;;;;;;;11.35;7.50;;;;;;;2.88;100.00;99114.44;687887;28;1674;-59
2023/03/07 01:37:21;;;;;;;10.95;6.95;;;;;;;2.90;100.00;99130.81;692128;28;1380;-61
2023/03/07 01:37:42;;;;;;;10.48;7.18;;;;;;;2.91;100.00;99122.22;691823;28;1362;-59
2023/03/07 01:38:03;;;;;;;10.30;7.37;;;;;;;2.94;100.00;99127.38;686372;28;1181;-60
2023/03/07 01:38:24;;;;;;;11.32;7.63;;;;;;;2.96;100.00;99124.78;688973;28;1350;-59
2023/03/07 01:38:48;;;;;;;10.57;7.40;;;;;;;3.04;100.00;99129.09;687860;28;4309;-61
2023/03/07 01:39:17;;;;;;;11.38;7.80;;;;;;;2.99;100.00;99120.50;686321;28;1583;-59
2023/03/07 01:39:53;;;;;;;9.77;7.05;;;;;;;3.04;100.00;99115.34;687358;28;1409;-60
2023/03/07 01:40:14;;;;;;;10.25;7.05;;;;;;;3.05;100.00;99120.50;690497;28;1449;-60
2023/03/07 01:40:37;;;;;;;10.57;7.40;;;;;;;3.00;100.00;99117.03;689356;28;1378;-60
2023/03/07 01:40:57;;;;;;;10.23;6.95;;;;;;;3.05;100.00;99119.66;691018;28;1326;-60
2023/03/07 01:41:18;;;;;;;10.47;7.33;;;;;;;3.12;100.00;99116.22;691165;28;1103;-60
2023/03/07 01:41:43;;;;;;;10.77;7.43;;;;;;;3.04;100.00;99121.34;685389;28;4488;-60
2023/03/07 01:42:04;;;;;;;10.18;7.25;;;;;;;3.04;100.00;99121.34;688473;28;1352;-60
2023/03/07 01:42:30;;;;;;;9.82;7.38;;;;;;;3.04;100.00;99118.78;688568;28;1529;-60
2023/03/07 01:42:52;;;;;;;10.52;6.97;;;;;;;2.98;100.00;99123.94;688227;28;1267;-60
2023/03/07 01:43:28;;;;;;;11.05;7.78;;;;;;;3.00;100.00;99114.47;689642;28;1406;-60
2023/03/07 01:44:04;;;;;;;10.90;7.68;;;;;;;2.91;100.00;99119.63;692562;28;1508;-60
2023/03/07 01:44:26;;;;;;;11.30;7.90;;;;;;;2.87;100.00;99112.75;695728;28;1556;-60
2023/03/07 01:45:00;;;;;;;10.82;7.45;;;;;;;2.79;100.00;99117.88;692015;28;4563;-58